createdAt,value
2023-03-16T00:01:07.315Z,29.98
2023-03-16T00:03:19.417Z,26.00
2023-03-16T00:05:28.407Z,27.85
2023-03-16T00:07:38.045Z,30.05
2023-03-16T00:09:46.019Z,29.33
2023-03-16T00:11:54.120Z,28.77
2023-03-16T00:14:04.345Z,30.05
2023-03-16T00:16:17.239Z,31.77
2023-03-16T00:18:30.161Z,28.30
2023-03-16T00:20:38.110Z,30.58
2023-03-16T00:22:45.937Z,29.10
2023-03-16T00:24:54.059Z,29.27
2023-03-16T00:27:01.985Z,28.58
2023-03-16T00:29:10.211Z,27.40
2023-03-16T00:31:18.272Z,28.00
2023-03-16T00:33:28.795Z,26.98
2023-03-16T00:35:36.918Z,26.98
2023-03-16T00:37:45.059Z,26.63
2023-03-16T00:39:53.013Z,28.45
2023-03-16T00:42:00.929Z,29.95
2023-03-16T00:44:09.877Z,27.27
2023-03-16T00:46:19.688Z,28.67
2023-03-16T00:48:30.430Z,30.15
2023-03-16T00:50:38.574Z,29.75
2023-03-16T00:52:46.432Z,29.10
2023-03-16T00:54:55.689Z,27.80
2023-03-16T00:57:04.895Z,28.50
2023-03-16T00:59:16.072Z,25.55
2023-03-16T01:01:24.008Z,28.05
2023-03-16T01:03:35.142Z,28.42
2023-03-16T01:05:44.124Z,32.40
2023-03-16T01:07:52.494Z,30.23
2023-03-16T01:10:00.386Z,29.60
2023-03-16T01:12:10.985Z,31.27
2023-03-16T01:14:18.807Z,30.27
2023-03-16T01:16:26.864Z,29.58
2023-03-16T01:18:37.532Z,25.33
2023-03-16T01:20:51.178Z,29.67
2023-03-16T01:22:59.353Z,31.38
2023-03-16T01:25:07.821Z,28.63
2023-03-16T01:27:17.521Z,26.88
2023-03-16T01:29:25.865Z,30.73
2023-03-16T01:31:35.735Z,25.70
2023-03-16T01:33:46.823Z,26.77
2023-03-16T01:36:03.333Z,25.50
2023-03-16T01:38:18.942Z,26.63
2023-03-16T01:40:27.120Z,27.00
2023-03-16T01:42:36.198Z,25.42
2023-03-16T01:44:56.210Z,29.42
2023-03-16T01:47:09.834Z,27.73
2023-03-16T01:49:23.912Z,30.98
2023-03-16T01:51:36.651Z,29.48
2023-03-16T01:53:48.817Z,27.35
2023-03-16T01:56:00.516Z,26.73
2023-03-16T01:58:08.670Z,28.70
2023-03-16T02:00:23.889Z,27.45
2023-03-16T02:02:44.784Z,28.85
2023-03-16T02:05:07.325Z,26.80
2023-03-16T02:07:17.963Z,28.33
2023-03-16T02:09:28.341Z,27.30
2023-03-16T02:11:37.575Z,23.67
2023-03-16T02:13:51.178Z,31.10
2023-03-16T02:15:59.908Z,27.10
2023-03-16T02:18:08.625Z,26.75
2023-03-16T02:20:30.479Z,27.33
2023-03-16T02:22:39.885Z,31.10
2023-03-16T02:24:48.934Z,24.95
2023-03-16T02:27:01.827Z,28.42
2023-03-16T02:29:31.968Z,26.17
2023-03-16T02:31:42.916Z,29.00
2023-03-16T02:33:53.879Z,26.15
2023-03-16T02:36:02.008Z,27.30
2023-03-16T02:38:13.052Z,30.38
2023-03-16T02:40:31.115Z,26.42
2023-03-16T02:42:42.559Z,26.45
2023-03-16T02:44:55.353Z,29.33
2023-03-16T02:47:16.026Z,29.02
2023-03-16T02:49:30.744Z,30.58
2023-03-16T02:51:39.048Z,26.33
2023-03-16T02:53:47.164Z,25.55
2023-03-16T02:55:56.077Z,24.50
2023-03-16T02:58:04.892Z,26.75
2023-03-16T03:00:17.204Z,27.73
2023-03-16T03:02:29.333Z,26.80
2023-03-16T03:04:37.220Z,31.90
2023-03-16T03:06:47.763Z,26.00
2023-03-16T03:08:55.956Z,28.30
2023-03-16T03:11:04.131Z,26.40
2023-03-16T03:13:12.435Z,28.60
2023-03-16T03:15:21.999Z,28.38
2023-03-16T03:17:43.174Z,26.98
2023-03-16T03:19:51.866Z,25.77
2023-03-16T03:21:59.963Z,21.77
2023-03-16T03:24:12.795Z,25.33
2023-03-16T03:26:37.134Z,29.38
2023-03-16T03:28:47.730Z,23.50
2023-03-16T03:30:55.588Z,27.67
2023-03-16T03:33:06.572Z,25.05
2023-03-16T03:35:16.929Z,21.83
2023-03-16T03:37:25.477Z,23.27
2023-03-16T03:39:33.236Z,23.10
2023-03-16T03:41:41.236Z,24.15
2023-03-16T03:43:50.267Z,23.33
2023-03-16T03:46:00.865Z,26.33
2023-03-16T03:48:14.441Z,27.67
2023-03-16T03:50:24.760Z,24.95
2023-03-16T03:52:40.578Z,28.05
2023-03-16T03:54:49.148Z,26.80
2023-03-16T03:56:58.787Z,26.98
2023-03-16T03:59:06.877Z,26.58
2023-03-16T04:01:33.199Z,24.73
2023-03-16T04:03:45.216Z,24.42
2023-03-16T04:05:54.647Z,24.75
2023-03-16T04:08:03.070Z,22.55
2023-03-16T04:10:12.495Z,30.42
2023-03-16T04:12:23.062Z,27.90
2023-03-16T04:14:32.389Z,23.77
2023-03-16T04:16:44.410Z,26.70
2023-03-16T04:18:57.247Z,27.50
2023-03-16T04:21:05.341Z,28.13
2023-03-16T04:23:14.230Z,27.67
2023-03-16T04:25:22.344Z,27.35
2023-03-16T04:27:36.364Z,28.23
2023-03-16T04:29:44.985Z,27.10
2023-03-16T04:31:54.133Z,25.10
2023-03-16T04:34:06.635Z,31.27
2023-03-16T04:36:14.955Z,30.75
2023-03-16T04:38:25.668Z,32.83
2023-03-16T04:40:39.611Z,29.23
2023-03-16T04:42:53.980Z,28.88
2023-03-16T04:45:02.504Z,30.13
2023-03-16T04:47:10.788Z,25.73
2023-03-16T04:49:23.298Z,26.80
2023-03-16T04:51:31.824Z,30.88
2023-03-16T04:53:49.252Z,32.03
2023-03-16T04:56:04.430Z,31.55
2023-03-16T04:58:13.797Z,30.05
2023-03-16T05:00:23.742Z,28.17
2023-03-16T05:02:58.072Z,28.10
2023-03-16T05:05:10.022Z,27.33
2023-03-16T05:07:22.060Z,28.20
2023-03-16T05:09:34.238Z,30.40
2023-03-16T05:11:42.467Z,26.13
2023-03-16T05:13:53.590Z,27.88
2023-03-16T05:16:02.161Z,28.45
2023-03-16T05:18:14.854Z,29.67
2023-03-16T05:20:26.542Z,29.85
2023-03-16T05:22:38.678Z,27.23
2023-03-16T05:25:03.513Z,27.65
2023-03-16T05:27:12.450Z,30.90
2023-03-16T05:29:20.654Z,30.52
2023-03-16T05:31:32.825Z,31.40
2023-03-16T05:33:44.799Z,30.00
2023-03-16T05:36:02.410Z,29.13
2023-03-16T05:38:10.748Z,30.15
2023-03-16T05:40:23.296Z,31.25
2023-03-16T05:42:46.695Z,28.48
2023-03-16T05:44:54.794Z,27.45
2023-03-16T05:47:25.967Z,25.02
2023-03-16T05:49:37.799Z,25.52
2023-03-16T05:51:53.442Z,27.67
2023-03-16T05:54:01.895Z,28.67
2023-03-16T05:56:16.667Z,29.48
2023-03-16T05:58:27.017Z,28.58
2023-03-16T06:00:34.993Z,29.33
2023-03-16T06:02:57.169Z,23.33
2023-03-16T06:05:11.301Z,29.17
2023-03-16T06:07:25.109Z,26.58
2023-03-16T06:09:36.145Z,23.55
2023-03-16T06:11:49.832Z,22.80
2023-03-16T06:13:58.979Z,23.42
2023-03-16T06:16:07.734Z,23.38
2023-03-16T06:18:16.836Z,24.42
2023-03-16T06:20:27.389Z,27.13
2023-03-16T06:22:39.037Z,24.33
2023-03-16T06:24:47.536Z,22.23
2023-03-16T06:26:56.955Z,23.40
2023-03-16T06:29:13.348Z,23.73
2023-03-16T06:31:23.250Z,22.90
2023-03-16T06:33:31.576Z,21.92
2023-03-16T06:35:39.369Z,18.38
2023-03-16T06:38:00.436Z,18.80
2023-03-16T06:40:27.558Z,17.38
2023-03-16T06:42:36.725Z,15.20
2023-03-16T06:44:45.749Z,15.60
2023-03-16T06:46:54.477Z,15.18
2023-03-16T06:49:02.455Z,14.77
2023-03-16T06:51:10.853Z,15.43
2023-03-16T06:53:22.198Z,13.10
2023-03-16T06:55:30.590Z,14.15
2023-03-16T06:57:38.364Z,15.73
2023-03-16T06:59:46.177Z,14.50
2023-03-16T07:01:54.190Z,14.57
2023-03-16T07:04:02.086Z,16.95
2023-03-16T07:06:12.837Z,14.77
2023-03-16T07:08:23.528Z,12.02
2023-03-16T07:10:31.762Z,13.27
2023-03-16T07:12:40.361Z,12.20
2023-03-16T07:14:51.335Z,12.73
2023-03-16T07:17:03.898Z,11.82
2023-03-16T07:19:11.824Z,12.25
2023-03-16T07:21:20.592Z,12.20
2023-03-16T07:23:32.419Z,12.30
2023-03-16T07:25:44.794Z,12.15
2023-03-16T07:27:53.231Z,13.90
2023-03-16T07:30:07.902Z,12.80
2023-03-16T07:32:19.498Z,12.23
2023-03-16T07:34:28.498Z,12.10
2023-03-16T07:36:39.214Z,12.35
2023-03-16T07:38:49.775Z,12.05
2023-03-16T07:40:58.627Z,11.27
2023-03-16T07:43:06.531Z,11.50
2023-03-16T07:45:23.948Z,11.55
2023-03-16T07:47:31.944Z,11.35
2023-03-16T07:49:44.586Z,11.38
2023-03-16T07:51:52.716Z,10.70
2023-03-16T07:54:11.017Z,12.80
2023-03-16T07:56:19.595Z,13.35
2023-03-16T07:58:32.386Z,12.52
2023-03-16T08:00:42.654Z,12.15
2023-03-16T08:02:50.830Z,13.55
2023-03-16T08:04:58.894Z,13.30
2023-03-16T08:07:06.895Z,12.70
2023-03-16T08:09:31.977Z,13.70
2023-03-16T08:11:41.767Z,13.02
2023-03-16T08:13:54.032Z,14.45
2023-03-16T08:16:02.284Z,17.17
2023-03-16T08:18:24.106Z,15.27
2023-03-16T08:20:33.707Z,14.90
2023-03-16T08:22:41.957Z,14.90
2023-03-16T08:24:52.606Z,13.18
2023-03-16T08:27:01.624Z,14.55
2023-03-16T08:29:11.464Z,14.63
2023-03-16T08:31:21.205Z,14.80
2023-03-16T08:33:52.801Z,14.20
2023-03-16T08:36:08.957Z,14.30
2023-03-16T08:38:19.344Z,13.20
2023-03-16T08:40:30.714Z,13.32
2023-03-16T08:42:41.424Z,14.07
2023-03-16T08:44:51.051Z,16.38
2023-03-16T08:47:00.174Z,15.40
2023-03-16T08:49:08.631Z,13.48
2023-03-16T08:51:17.613Z,14.95
2023-03-16T08:53:25.560Z,15.25
2023-03-16T08:55:37.068Z,13.25
2023-03-16T08:57:46.470Z,14.38
2023-03-16T08:59:54.534Z,13.73
2023-03-16T09:02:04.552Z,13.30
2023-03-16T09:04:13.343Z,13.55
2023-03-16T09:06:22.598Z,12.02
2023-03-16T09:08:30.632Z,12.60
2023-03-16T09:10:41.052Z,13.45
2023-03-16T09:12:49.326Z,15.38
2023-03-16T09:14:57.116Z,12.35
2023-03-16T09:17:05.348Z,15.82
2023-03-16T09:19:13.760Z,13.80
2023-03-16T09:21:22.021Z,14.57
2023-03-16T09:23:30.043Z,15.10
2023-03-16T09:25:40.473Z,11.57
2023-03-16T09:27:48.348Z,12.18
2023-03-16T09:29:56.623Z,12.10
2023-03-16T09:32:05.500Z,11.23
2023-03-16T09:34:13.261Z,12.43
2023-03-16T09:36:21.186Z,9.45
2023-03-16T09:38:29.680Z,9.20
2023-03-16T09:40:41.605Z,8.88
2023-03-16T09:43:01.047Z,9.32
2023-03-16T09:45:21.325Z,9.25
2023-03-16T09:47:34.884Z,10.07
2023-03-16T09:49:48.085Z,9.57
2023-03-16T09:52:03.432Z,9.98
2023-03-16T09:54:23.196Z,8.50
2023-03-16T09:56:38.449Z,8.68
2023-03-16T09:58:46.994Z,8.57
2023-03-16T10:01:05.135Z,8.90
2023-03-16T10:03:28.680Z,7.70
2023-03-16T10:05:38.712Z,8.48
2023-03-16T10:07:57.189Z,7.90
2023-03-16T10:10:19.623Z,7.95
2023-03-16T10:12:38.333Z,6.65
2023-03-16T10:14:53.269Z,6.90
2023-03-16T10:17:04.521Z,6.90
2023-03-16T10:19:19.788Z,6.30
2023-03-16T10:21:28.493Z,7.00
2023-03-16T10:23:40.305Z,6.00
2023-03-16T10:25:51.487Z,7.93
2023-03-16T10:28:02.311Z,7.93
2023-03-16T10:30:23.170Z,6.60
2023-03-16T10:32:35.787Z,6.35
2023-03-16T10:34:44.982Z,6.38
2023-03-16T10:36:53.379Z,5.30
2023-03-16T10:39:06.599Z,6.28
2023-03-16T10:41:28.727Z,9.02
2023-03-16T10:43:39.399Z,5.05
2023-03-16T10:45:50.044Z,8.93
2023-03-16T10:48:09.370Z,6.53
2023-03-16T10:50:21.257Z,6.78
2023-03-16T10:52:36.488Z,5.30
2023-03-16T10:54:52.694Z,5.28
2023-03-16T10:57:01.142Z,5.65
2023-03-16T10:59:38.456Z,6.00
2023-03-16T11:01:52.394Z,6.43
2023-03-16T11:04:02.395Z,5.63
2023-03-16T11:06:20.601Z,5.05
2023-03-16T11:08:30.979Z,5.13
2023-03-16T11:10:54.714Z,6.50
2023-03-16T11:13:14.885Z,5.88
2023-03-16T11:15:29.393Z,5.47
2023-03-16T11:17:41.542Z,4.90
2023-03-16T11:19:55.767Z,4.63
2023-03-16T11:22:07.592Z,5.63
2023-03-16T11:24:23.801Z,5.63
2023-03-16T11:26:36.707Z,5.90
2023-03-16T11:28:49.719Z,5.13
2023-03-16T11:31:14.839Z,5.35
2023-03-16T11:33:27.393Z,5.00
2023-03-16T11:35:56.600Z,4.50
2023-03-16T11:38:14.730Z,5.63
2023-03-16T11:40:35.428Z,6.18
2023-03-16T11:42:53.916Z,6.00
2023-03-16T11:45:15.700Z,5.72
2023-03-16T11:48:02.086Z,4.57
2023-03-16T11:50:20.839Z,5.40
2023-03-16T11:52:46.470Z,4.03
2023-03-16T11:55:04.725Z,5.80
2023-03-16T11:57:29.903Z,4.22
2023-03-16T12:00:03.264Z,4.82
2023-03-16T12:02:34.528Z,4.50
2023-03-16T12:05:02.871Z,5.10
2023-03-16T12:07:26.711Z,3.83
2023-03-16T12:10:01.138Z,3.80
2023-03-16T12:12:20.717Z,6.38
2023-03-16T12:14:34.222Z,5.95
2023-03-16T12:16:50.004Z,5.38
2023-03-16T12:19:02.880Z,5.30
2023-03-16T12:21:17.589Z,3.92
2023-03-16T12:23:32.274Z,4.47
2023-03-16T12:25:43.766Z,5.28
2023-03-16T12:27:55.622Z,4.72
2023-03-16T12:30:16.120Z,5.47
2023-03-16T12:32:36.707Z,4.20
2023-03-16T12:34:51.277Z,3.80
2023-03-16T12:37:10.642Z,4.68
2023-03-16T12:39:27.369Z,5.47
2023-03-16T12:41:44.771Z,4.85
2023-03-16T12:44:11.164Z,4.50
2023-03-16T12:46:28.028Z,3.67
2023-03-16T12:48:40.231Z,5.65
2023-03-16T12:50:54.822Z,5.32
2023-03-16T12:53:08.364Z,6.82
2023-03-16T12:55:18.853Z,5.15
2023-03-16T12:57:28.352Z,4.43
2023-03-16T12:59:42.946Z,4.70
2023-03-16T13:01:54.017Z,4.05
2023-03-16T13:04:05.241Z,5.32
2023-03-16T13:06:21.715Z,4.22
2023-03-16T13:08:46.211Z,4.40
2023-03-16T13:11:05.178Z,4.78
2023-03-16T13:13:16.236Z,4.70
2023-03-16T13:15:32.452Z,5.07
2023-03-16T13:17:40.548Z,4.70
2023-03-16T13:20:00.919Z,4.13
2023-03-16T13:22:23.142Z,4.97
2023-03-16T13:24:40.072Z,6.60
2023-03-16T13:26:50.930Z,4.30
2023-03-16T13:28:58.875Z,5.43
2023-03-16T13:31:09.574Z,4.68
2023-03-16T13:33:23.491Z,4.95
2023-03-16T13:35:33.362Z,4.78
2023-03-16T13:37:43.803Z,4.40
2023-03-16T13:39:59.948Z,4.65
2023-03-16T13:42:19.484Z,4.03
2023-03-16T13:44:28.057Z,4.60
2023-03-16T13:46:35.980Z,4.93
2023-03-16T13:48:43.917Z,5.63
2023-03-16T13:50:57.769Z,6.00
2023-03-16T13:53:13.250Z,7.40
2023-03-16T13:55:32.805Z,5.15
2023-03-16T13:57:43.463Z,6.63
2023-03-16T13:59:53.691Z,4.85
2023-03-16T14:02:03.438Z,5.97
2023-03-16T14:04:18.963Z,6.57
2023-03-16T14:06:29.143Z,7.53
2023-03-16T14:08:37.746Z,7.22
2023-03-16T14:10:49.711Z,6.15
2023-03-16T14:12:58.881Z,4.57
2023-03-16T14:15:10.300Z,4.90
2023-03-16T14:17:21.770Z,5.32
2023-03-16T14:19:36.052Z,7.15
2023-03-16T14:21:48.799Z,6.65
2023-03-16T14:24:02.174Z,6.03
2023-03-16T14:26:16.186Z,6.53
2023-03-16T14:28:32.942Z,5.53
2023-03-16T14:30:40.773Z,5.45
2023-03-16T14:32:59.443Z,8.40
2023-03-16T14:35:16.710Z,5.75
2023-03-16T14:37:25.134Z,7.03
2023-03-16T14:39:33.518Z,7.28
2023-03-16T14:41:44.188Z,11.13
2023-03-16T14:43:54.583Z,10.35
2023-03-16T14:46:03.171Z,8.35
2023-03-16T14:48:20.254Z,6.85
2023-03-16T14:50:28.796Z,7.22
2023-03-16T14:52:38.255Z,6.95
2023-03-16T14:54:47.237Z,6.60
2023-03-16T14:57:03.967Z,6.30
2023-03-16T14:59:12.327Z,8.20
2023-03-16T15:01:21.103Z,6.65
2023-03-16T15:03:36.005Z,5.55
2023-03-16T15:05:46.378Z,6.85
2023-03-16T15:07:57.214Z,7.88
2023-03-16T15:10:10.495Z,6.72
2023-03-16T15:12:25.142Z,7.00
2023-03-16T15:14:48.381Z,3.58
2023-03-16T15:16:56.267Z,5.82
2023-03-16T15:19:06.146Z,3.22
2023-03-16T15:21:16.585Z,3.88
2023-03-16T15:23:26.251Z,3.90
2023-03-16T15:25:38.654Z,3.83
2023-03-16T15:27:50.230Z,3.55
2023-03-16T15:29:58.866Z,4.63
2023-03-16T15:32:09.096Z,4.32
2023-03-16T15:34:17.162Z,4.28
2023-03-16T15:36:25.890Z,4.22
2023-03-16T15:38:36.896Z,4.05
2023-03-16T15:40:47.818Z,3.97
2023-03-16T15:42:58.647Z,3.88
2023-03-16T15:45:14.174Z,5.88
2023-03-16T15:47:22.125Z,6.20
2023-03-16T15:49:37.759Z,5.32
2023-03-16T15:51:52.812Z,5.20
2023-03-16T15:54:03.474Z,5.80
2023-03-16T15:56:14.859Z,5.55
2023-03-16T15:58:28.386Z,5.05
2023-03-16T16:00:39.732Z,5.00
2023-03-16T16:02:48.191Z,9.02
2023-03-16T16:04:56.280Z,4.90
2023-03-16T16:07:13.074Z,5.93
2023-03-16T16:09:23.162Z,5.80
2023-03-16T16:11:31.488Z,3.97
2023-03-16T16:13:44.945Z,3.70
2023-03-16T16:15:54.752Z,4.03
2023-03-16T16:18:20.961Z,3.35
2023-03-16T16:20:32.737Z,4.80
2023-03-16T16:22:40.830Z,6.47
2023-03-16T16:24:48.877Z,4.28
2023-03-16T16:26:56.726Z,3.80
2023-03-16T16:29:14.348Z,3.42
2023-03-16T16:31:24.924Z,3.70
2023-03-16T16:33:36.234Z,3.75
2023-03-16T16:35:45.383Z,4.10
2023-03-16T16:37:53.475Z,4.25
2023-03-16T16:40:02.075Z,3.75
2023-03-16T16:42:17.789Z,3.58
2023-03-16T16:44:33.865Z,4.03
2023-03-16T16:46:44.879Z,4.55
2023-03-16T16:48:55.382Z,4.53
2023-03-16T16:51:04.145Z,4.45
2023-03-16T16:53:23.020Z,3.72
2023-03-16T16:55:31.022Z,4.22
2023-03-16T16:57:39.605Z,4.53
2023-03-16T16:59:51.347Z,5.13
2023-03-16T17:01:59.215Z,4.93
2023-03-16T17:04:07.145Z,4.00
2023-03-16T17:06:19.778Z,3.80
2023-03-16T17:08:28.899Z,5.28
2023-03-16T17:10:37.983Z,3.72
2023-03-16T17:12:46.856Z,3.70
2023-03-16T17:14:57.574Z,4.80
2023-03-16T17:17:10.190Z,4.35
2023-03-16T17:19:23.373Z,4.93
2023-03-16T17:21:34.055Z,4.15
2023-03-16T17:23:42.170Z,3.80
2023-03-16T17:25:50.732Z,4.40
2023-03-16T17:27:59.410Z,3.90
2023-03-16T17:30:22.290Z,3.75
2023-03-16T17:32:30.437Z,4.20
2023-03-16T17:34:38.351Z,4.40
2023-03-16T17:36:46.580Z,5.20
2023-03-16T17:38:54.417Z,4.57
2023-03-16T17:41:04.130Z,4.43
2023-03-16T17:43:17.012Z,4.10
2023-03-16T17:45:35.987Z,4.03
2023-03-16T17:47:43.885Z,4.32
2023-03-16T17:49:52.017Z,5.05
2023-03-16T17:52:00.015Z,5.07
2023-03-16T17:54:08.389Z,4.03
2023-03-16T17:56:20.090Z,4.25
2023-03-16T17:58:32.650Z,4.18
2023-03-16T18:00:47.039Z,3.92
2023-03-16T18:02:56.871Z,4.63
2023-03-16T18:05:05.710Z,5.03
2023-03-16T18:07:16.887Z,6.63
2023-03-16T18:09:24.769Z,4.45
2023-03-16T18:11:40.006Z,4.88
2023-03-16T18:13:49.329Z,4.75
2023-03-16T18:16:00.490Z,4.82
2023-03-16T18:18:10.506Z,3.85
2023-03-16T18:20:27.870Z,4.75
2023-03-16T18:22:36.441Z,11.15
2023-03-16T18:24:45.258Z,6.00
2023-03-16T18:26:53.682Z,4.30
2023-03-16T18:29:01.698Z,4.63
2023-03-16T18:31:21.630Z,5.30
2023-03-16T18:33:33.049Z,4.72
2023-03-16T18:35:41.421Z,5.47
2023-03-16T18:37:50.145Z,5.82
2023-03-16T18:39:58.257Z,7.15
2023-03-16T18:42:06.710Z,5.45
2023-03-16T18:44:20.781Z,7.32
2023-03-16T18:46:35.670Z,5.47
2023-03-16T18:48:43.845Z,5.28
2023-03-16T18:50:52.254Z,6.10
2023-03-16T18:53:00.637Z,6.15
2023-03-16T18:55:17.455Z,6.82
2023-03-16T18:57:29.392Z,6.03
2023-03-16T18:59:37.494Z,5.85
2023-03-16T19:01:49.728Z,5.75
2023-03-16T19:03:58.892Z,5.88
2023-03-16T19:06:07.758Z,6.20
2023-03-16T19:08:16.823Z,6.68
2023-03-16T19:10:28.266Z,6.28
2023-03-16T19:12:36.348Z,6.70
2023-03-16T19:14:44.351Z,7.03
2023-03-16T19:16:55.732Z,8.18
2023-03-16T19:19:03.594Z,7.47
2023-03-16T19:21:16.580Z,6.40
2023-03-16T19:23:28.770Z,6.50
2023-03-16T19:25:39.304Z,7.20
2023-03-16T19:27:48.557Z,6.97
2023-03-16T19:29:58.189Z,6.75
2023-03-16T19:32:09.118Z,6.97
2023-03-16T19:34:19.732Z,6.55
2023-03-16T19:36:45.149Z,6.72
2023-03-16T19:38:53.879Z,6.28
2023-03-16T19:41:03.317Z,8.05
2023-03-16T19:43:19.283Z,7.70
2023-03-16T19:45:33.419Z,7.28
2023-03-16T19:47:44.481Z,8.00
2023-03-16T19:49:52.278Z,7.07
2023-03-16T19:52:00.696Z,7.25
2023-03-16T19:54:08.898Z,7.53
2023-03-16T19:56:19.072Z,6.55
2023-03-16T19:58:34.325Z,8.20
2023-03-16T20:00:43.053Z,7.18
2023-03-16T20:02:55.421Z,8.32
2023-03-16T20:05:03.733Z,9.25
2023-03-16T20:07:17.732Z,8.32
2023-03-16T20:09:26.339Z,7.70
2023-03-16T20:11:35.520Z,7.20
2023-03-16T20:13:43.585Z,8.60
2023-03-16T20:15:51.707Z,8.20
2023-03-16T20:18:03.183Z,8.15
2023-03-16T20:20:21.958Z,9.82
2023-03-16T20:22:31.130Z,8.27
2023-03-16T20:24:39.104Z,8.82
2023-03-16T20:26:48.364Z,9.35
2023-03-16T20:28:56.705Z,9.38
2023-03-16T20:31:04.923Z,9.02
2023-03-16T20:33:19.899Z,9.50
2023-03-16T20:35:32.520Z,8.88
2023-03-16T20:37:41.587Z,8.32
2023-03-16T20:39:49.644Z,9.77
2023-03-16T20:41:57.504Z,9.15
2023-03-16T20:44:06.138Z,9.27
2023-03-16T20:46:20.595Z,10.95
2023-03-16T20:48:32.261Z,8.50
2023-03-16T20:50:40.166Z,9.88
2023-03-16T20:52:48.214Z,9.63
2023-03-16T20:55:00.783Z,8.25
2023-03-16T20:57:13.492Z,10.57
2023-03-16T20:59:34.802Z,10.15
2023-03-16T21:01:45.708Z,8.90
2023-03-16T21:04:00.264Z,8.25
2023-03-16T21:06:16.953Z,9.70
2023-03-16T21:08:24.969Z,8.73
2023-03-16T21:10:32.766Z,7.78
2023-03-16T21:12:46.300Z,8.07
2023-03-16T21:14:54.487Z,7.85
2023-03-16T21:17:02.772Z,8.65
2023-03-16T21:19:18.638Z,8.35
2023-03-16T21:21:26.918Z,9.07
2023-03-16T21:23:34.879Z,8.30
2023-03-16T21:25:48.121Z,8.63
2023-03-16T21:27:57.983Z,9.07
2023-03-16T21:30:10.523Z,8.05
2023-03-16T21:32:22.855Z,7.93
2023-03-16T21:34:38.422Z,9.07
2023-03-16T21:36:47.947Z,8.20
2023-03-16T21:38:56.533Z,9.20
2023-03-16T21:41:04.658Z,8.05
2023-03-16T21:43:13.196Z,9.02
2023-03-16T21:45:21.566Z,8.10
2023-03-16T21:47:32.038Z,9.25
2023-03-16T21:49:42.472Z,7.30
2023-03-16T21:51:52.177Z,7.82
2023-03-16T21:54:01.746Z,8.25
2023-03-16T21:56:13.197Z,7.68
2023-03-16T21:58:35.061Z,7.88
2023-03-16T22:00:43.570Z,8.38
2023-03-16T22:02:53.794Z,9.65
2023-03-16T22:05:05.167Z,7.75
2023-03-16T22:07:14.075Z,7.70
2023-03-16T22:09:25.151Z,7.85
2023-03-16T22:11:34.509Z,7.65
2023-03-16T22:13:47.653Z,7.15
2023-03-16T22:15:58.862Z,8.40
2023-03-16T22:18:20.331Z,7.65
2023-03-16T22:20:31.158Z,7.03
2023-03-16T22:22:39.102Z,8.15
2023-03-16T22:24:47.534Z,6.75
2023-03-16T22:26:56.865Z,6.93
2023-03-16T22:29:06.048Z,6.63
2023-03-16T22:31:18.932Z,7.03
2023-03-16T22:33:30.686Z,7.80
2023-03-16T22:35:42.148Z,7.70
2023-03-16T22:37:50.259Z,7.03
2023-03-16T22:39:58.733Z,7.93
2023-03-16T22:42:19.404Z,7.88
2023-03-16T22:45:08.756Z,9.60
2023-03-16T22:47:42.845Z,7.68
2023-03-16T22:49:54.319Z,8.15
2023-03-16T22:52:04.752Z,7.78
2023-03-16T22:54:19.210Z,8.45
2023-03-16T22:56:27.725Z,8.48
2023-03-16T22:58:39.531Z,7.55
2023-03-16T23:00:47.652Z,7.97
2023-03-16T23:02:55.695Z,6.93
2023-03-16T23:05:03.681Z,7.60
2023-03-16T23:07:16.955Z,7.68
2023-03-16T23:09:25.480Z,7.93
2023-03-16T23:11:36.515Z,7.93
2023-03-16T23:13:44.942Z,8.10
2023-03-16T23:15:55.433Z,7.68
2023-03-16T23:18:03.215Z,7.50
2023-03-16T23:20:21.848Z,7.47
2023-03-16T23:22:32.910Z,8.10
2023-03-16T23:24:41.255Z,7.13
2023-03-16T23:26:49.547Z,6.95
2023-03-16T23:28:59.624Z,7.70
2023-03-16T23:31:07.920Z,8.43
2023-03-16T23:33:16.907Z,7.65
2023-03-16T23:35:28.005Z,7.95
2023-03-16T23:37:38.351Z,7.70
2023-03-16T23:39:47.246Z,8.38
2023-03-16T23:41:56.402Z,8.63
2023-03-16T23:44:04.873Z,8.43
2023-03-16T23:46:13.595Z,7.63
2023-03-16T23:48:24.330Z,7.03
2023-03-16T23:50:35.432Z,10.32
2023-03-16T23:52:46.636Z,7.97
2023-03-16T23:54:54.656Z,8.00
2023-03-16T23:57:02.534Z,10.02
2023-03-16T23:59:10.757Z,7.90
